San Jose del Cabo (SJD/MMSD)

Map

Destinations

Information

Location
San Jose del Cabo, Baja California Sur, Mexico
Local Time
20:48 / 8:48 pm
GMT Time
03:48 / 3:48 am
Gates
Unassigned
No FAA reported delays
METAR MMSD 170248Z 05006KT 12SM SCT200 31/17 A2987 RMK SLP099 52020 907 8/004 SC-AC
TAF TAF MMSD 161659Z 1618/1718 16015KT P6SM SCT020 BKN230 BECMG 1703/1704 00000KT FM171500 14010KT P6SM SCT025